Pagina principale
METAR-TAF:

METAR-TAF

Aeroporti :

Demopolis, Alabama, Stati Uniti

latitudine: 32-27-50N, longitudine: 087-57-15W, altezza: 34 m

Osservazione

Il bollettino è stato emesso 16 minuti fa, alle 20:55 UTC
Vento 3 kt da sud
Temperature 14°C
Umidità 58%
Pressione 1021 hPa
Visibilità: 11.3 km
Cielo sereno

METAR: KDYA 122055Z AUTO 18003KT 7SM CLR 14/06 A3016 RMK AO2 T01410055

Ora: 15:11 (21:11 UTC)


TAF: mancante

Osservazioni e previsioni meteorologiche di più di 4000 aeroporti (messaggi METAR e TAF).

Le stazioni disponibili sono rappresentate dai dischi gialli e rossi sulla carta.

Puntare il mouse per vedere il nome della stazione.

Clicca sopra per visualizzare le osservazioni e previsioni meteorologiche.

Per cambiare la mappa : fare clic sui pulsanti verdi con una croce nera per ingrandire, il pulsante verde con un trattino per diminuire, o sulla freccia verde per le mappe adiacenti.


METAR-TAF: